Time;durP1;ratioP1;P1;durP2;ratioP2;P2;SDS_P1;SDS_P2;PMS_P1;PMS_P2;Temp;Humidity;BMP_temperature;BMP_pressure;BME280_temperature;BME280_humidity;BME280_pressure;Samples;Min_cycle;Max_cycle;Signal;HPM_P1;HPM_P2
2023/05/08 00:00:58;;;;;;;8.27;5.75;;;;;;;19.12;100.00;152785.31;5037139;28;20499;-88
2023/05/08 00:03:25;;;;;;;12.07;6.25;;;;;;;19.02;100.00;152762.66;5037121;28;20029;-90
2023/05/08 00:05:50;;;;;;;6.82;5.07;;;;;;;19.12;100.00;152785.31;5035626;28;20041;-86
2023/05/08 00:08:16;;;;;;;8.20;4.93;;;;;;;18.97;100.00;152750.09;5036375;28;20105;-87
2023/05/08 00:10:41;;;;;;;6.20;4.68;;;;;;;19.04;100.00;152766.44;5035729;28;20083;-88
2023/05/08 00:13:07;;;;;;;11.88;5.32;;;;;;;18.98;100.00;152752.63;5034029;28;21100;-86
2023/05/08 00:15:32;;;;;;;8.25;6.10;;;;;;;18.99;100.00;152755.09;5036420;28;20063;-88
2023/05/08 00:17:58;;;;;;;8.35;4.90;;;;;;;18.94;100.00;152742.56;5037328;28;20033;-88
2023/05/08 00:20:23;;;;;;;6.18;4.43;;;;;;;18.89;100.00;152729.97;5036917;28;20116;-86
2023/05/08 00:22:49;;;;;;;7.70;5.05;;;;;;;18.77;100.00;152699.81;5042141;28;20071;-86
2023/05/08 00:25:14;;;;;;;9.98;5.28;;;;;;;18.80;100.00;152707.34;5040184;28;20057;-87
2023/05/08 00:27:40;;;;;;;10.23;5.45;;;;;;;18.81;100.00;152708.63;5035906;28;20077;-87
2023/05/08 00:30:07;;;;;;;13.50;6.57;;;;;;;18.80;100.00;152707.34;5035402;28;20100;-88
2023/05/08 00:32:32;;;;;;;15.40;6.07;;;;;;;18.68;100.00;152675.94;5034198;28;20068;-87
2023/05/08 00:34:58;;;;;;;7.18;4.53;;;;;;;18.80;100.00;152707.34;5035399;28;20036;-87
2023/05/08 00:37:24;;;;;;;9.95;4.82;;;;;;;19.04;100.00;152767.72;5035111;28;20037;-89
2023/05/08 00:39:50;;;;;;;8.23;4.65;;;;;;;19.08;100.00;152777.78;5035642;28;20041;-90
2023/05/08 00:42:15;;;;;;;10.13;4.72;;;;;;;18.96;100.00;152747.56;5035291;28;20037;-88
2023/05/08 00:44:41;;;;;;;17.40;5.88;;;;;;;18.72;100.00;152686.00;5035764;28;20513;-90
2023/05/08 00:47:07;;;;;;;10.80;5.70;;;;;;;18.80;100.00;152707.34;5052443;28;20021;-87
2023/05/08 00:49:34;;;;;;;8.18;4.68;;;;;;;19.12;100.00;152786.56;5035770;28;20029;-89
2023/05/08 00:52:03;;;;;;;8.90;5.05;;;;;;;19.19;100.00;152802.91;5033104;28;20033;-89
2023/05/08 00:54:29;;;;;;;6.03;4.82;;;;;;;19.30;100.00;152830.53;5034685;28;20085;-87
2023/05/08 00:56:59;;;;;;;6.57;4.68;;;;;;;19.41;100.00;152858.28;5033041;28;20505;-88
2023/05/08 00:59:25;;;;;;;10.70;5.05;;;;;;;19.00;100.00;152757.63;5035673;28;20041;-88
2023/05/08 01:01:51;;;;;;;10.90;4.63;;;;;;;18.77;100.00;152699.81;5034432;28;20082;-88
2023/05/08 01:04:20;;;;;;;8.77;4.85;;;;;;;18.39;100.00;152604.28;5035286;28;20022;-86
2023/05/08 01:06:49;;;;;;;11.13;5.13;;;;;;;18.65;100.00;152668.41;5035907;28;20045;-86
2023/05/08 01:09:14;;;;;;;10.35;6.60;;;;;;;18.68;100.00;152675.94;5040411;28;20506;-89
2023/05/08 01:12:02;;;;;;;12.05;5.45;;;;;;;18.79;100.00;152704.81;5034352;28;20049;-89
2023/05/08 01:15:08;;;;;;;9.20;5.60;;;;;;;18.90;100.00;152731.22;5034329;28;20034;-90
2023/05/08 01:17:37;;;;;;;11.18;5.05;;;;;;;18.78;100.00;152702.34;5036126;28;20132;-88
2023/05/08 01:20:06;;;;;;;9.52;5.95;;;;;;;18.93;100.00;152740.03;5033522;28;20041;-88
2023/05/08 01:22:56;;;;;;;12.38;5.90;;;;;;;19.00;100.00;152757.63;5035823;28;20037;-87
2023/05/08 01:26:06;;;;;;;13.02;7.18;;;;;;;18.89;100.00;152729.97;5033786;28;20033;-89
2023/05/08 01:28:53;;;;;;;11.23;6.13;;;;;;;18.92;100.00;152737.56;5033516;28;20049;-87
2023/05/08 01:31:43;;;;;;;16.08;8.23;;;;;;;18.77;100.00;152699.81;5033551;28;20134;-90
2023/05/08 01:34:26;;;;;;;13.20;7.80;;;;;;;18.78;100.00;152701.09;5035923;28;20086;-88
2023/05/08 01:37:03;;;;;;;17.25;7.10;;;;;;;18.47;100.00;152624.38;5019582;28;20093;-88
2023/05/08 01:39:31;;;;;;;11.68;7.45;;;;;;;18.66;100.00;152672.16;5033940;28;20175;-88
2023/05/08 01:42:04;;;;;;;13.85;8.63;;;;;;;18.43;100.00;152614.31;5035203;28;20427;-86
2023/05/08 01:44:40;;;;;;;;;;;;;;;18.42;100.00;152611.81;5037771;28;20487;-87
2023/05/08 01:47:10;;;;;;;13.05;7.88;;;;;;;18.43;100.00;152614.31;5035629;28;19917;-87
2023/05/08 01:49:41;;;;;;;14.20;8.15;;;;;;;18.39;100.00;152604.28;5035723;28;20402;-90
2023/05/08 01:52:13;;;;;;;11.80;8.43;;;;;;;18.47;100.00;152624.38;5037841;28;20036;-89
2023/05/08 01:54:47;;;;;;;12.98;7.88;;;;;;;18.34;100.00;152591.69;5037362;28;20060;-87
2023/05/08 01:57:13;;;;;;;12.30;7.97;;;;;;;17.98;100.00;152503.78;5039920;28;20034;-89
2023/05/08 01:59:41;;;;;;;13.63;8.10;;;;;;;17.66;100.00;152422.13;5032638;28;20074;-88
2023/05/08 02:02:10;;;;;;;13.35;8.30;;;;;;;17.46;100.00;152373.09;5034312;28;20040;-89
2023/05/08 02:04:36;;;;;;;16.77;8.27;;;;;;;17.39;100.00;152355.53;5035052;28;20481;-87
2023/05/08 02:07:06;;;;;;;16.00;9.05;;;;;;;17.25;100.00;152320.34;5050345;28;20521;-87
2023/05/08 02:09:33;;;;;;;14.57;8.65;;;;;;;17.45;100.00;152371.84;5046490;28;20037;-89
2023/05/08 02:12:01;;;;;;;18.40;9.40;;;;;;;17.60;100.00;152408.28;5018755;28;20041;-87
2023/05/08 02:14:31;;;;;;;17.50;9.10;;;;;;;17.59;100.00;152405.81;5032515;28;20517;-89
2023/05/08 02:17:00;;;;;;;11.02;8.43;;;;;;;17.80;100.00;152458.53;5032258;28;20040;-88
2023/05/08 02:19:29;;;;;;;12.57;8.82;;;;;;;17.81;100.00;152461.06;5032674;28;20041;-88
2023/05/08 02:21:57;;;;;;;13.85;8.80;;;;;;;17.79;100.00;152454.78;5033978;28;20037;-89
2023/05/08 02:24:24;;;;;;;16.95;8.65;;;;;;;17.88;100.00;152478.63;5032974;28;20128;-88
2023/05/08 02:26:52;;;;;;;16.08;9.25;;;;;;;17.59;100.00;152405.81;5034540;28;20082;-87
2023/05/08 02:29:21;;;;;;;16.48;8.45;;;;;;;17.37;100.00;152351.72;5034201;28;20461;-88
2023/05/08 02:31:47;;;;;;;14.25;9.15;;;;;;;17.07;100.00;152275.19;5033653;28;20564;-88
2023/05/08 02:34:14;;;;;;;10.98;7.70;;;;;;;17.03;100.00;152267.59;5033549;28;20120;-90
2023/05/08 02:36:42;;;;;;;11.15;8.52;;;;;;;16.87;100.00;152227.44;5031282;28;20029;-88
2023/05/08 02:39:12;;;;;;;17.70;8.40;;;;;;;16.83;100.00;152217.44;5033946;28;20451;-88
2023/05/08 02:41:40;;;;;;;17.33;8.40;;;;;;;16.70;100.00;152183.53;5033508;28;20034;-88
2023/05/08 02:44:07;;;;;;;18.50;7.93;;;;;;;16.61;100.00;152162.19;5032784;28;20042;-86
2023/05/08 02:46:48;;;;;;;17.20;8.07;;;;;;;16.49;100.00;152132.03;5032559;28;20045;-89
2023/05/08 02:49:45;;;;;;;13.55;7.18;;;;;;;16.61;100.00;152162.19;5032270;28;20462;-90
2023/05/08 02:52:14;;;;;;;11.35;7.68;;;;;;;16.52;100.00;152140.81;5032519;28;20042;-88
2023/05/08 02:54:58;;;;;;;12.73;7.57;;;;;;;16.56;100.00;152148.38;5032386;28;20034;-86
2023/05/08 02:57:42;;;;;;;12.35;8.48;;;;;;;16.66;100.00;152173.50;5041191;28;20037;-86
2023/05/08 03:00:15;;;;;;;11.68;8.45;;;;;;;16.48;100.00;152129.50;5040030;28;20061;-86
2023/05/08 03:02:47;;;;;;;13.02;8.90;;;;;;;16.49;100.00;152132.03;5037915;28;20057;-88
2023/05/08 03:05:19;;;;;;;14.30;9.43;;;;;;;16.51;100.00;152137.03;5032772;28;20068;-87
2023/05/08 03:07:49;;;;;;;15.00;10.00;;;;;;;16.32;100.00;152089.34;5032003;28;20097;-88
2023/05/08 03:10:15;;;;;;;13.85;9.65;;;;;;;16.20;100.00;152059.25;5015520;28;20041;-88
2023/05/08 03:12:48;;;;;;;12.45;9.30;;;;;;;16.38;100.00;152104.41;5024203;28;20128;-88
2023/05/08 03:15:33;;;;;;;14.27;9.00;;;;;;;16.53;100.00;152143.34;5012414;28;20034;-87
2023/05/08 03:18:06;;;;;;;13.50;8.30;;;;;;;16.75;100.00;152196.06;5020448;28;20034;-88
2023/05/08 03:20:37;;;;;;;15.18;9.20;;;;;;;16.70;100.00;152184.81;5022993;28;20042;-89
2023/05/08 03:23:07;;;;;;;15.57;8.60;;;;;;;16.57;100.00;152152.19;5004980;28;20410;-88
2023/05/08 03:25:34;;;;;;;12.68;9.38;;;;;;;16.52;100.00;152139.53;5016446;28;20014;-89
2023/05/08 03:28:03;;;;;;;19.90;9.63;;;;;;;16.53;100.00;152142.06;5023939;28;20419;-89
2023/05/08 03:30:35;;;;;;;13.38;8.40;;;;;;;16.80;100.00;152209.91;5029756;28;20034;-87
2023/05/08 03:33:07;;;;;;;16.27;6.80;;;;;;;16.63;100.00;152167.22;5013092;28;20038;-88
2023/05/08 03:35:37;;;;;;;12.65;6.35;;;;;;;16.67;100.00;152177.22;5013696;28;20108;-87
2023/05/08 03:38:05;;;;;;;15.30;7.28;;;;;;;16.69;100.00;152182.28;4996623;28;20034;-90
2023/05/08 03:40:37;;;;;;;17.73;7.43;;;;;;;16.63;100.00;152167.22;4997285;28;20033;-89
2023/05/08 03:43:06;;;;;;;15.20;7.18;;;;;;;16.40;100.00;152109.44;5012358;28;20443;-88
2023/05/08 03:45:36;;;;;;;10.93;7.13;;;;;;;16.21;100.00;152063.00;4995863;28;20392;-88
2023/05/08 03:48:07;;;;;;;16.08;7.15;;;;;;;16.45;100.00;152121.97;5000860;28;20084;-89
2023/05/08 03:50:36;;;;;;;12.40;6.28;;;;;;;16.70;100.00;152183.53;5000964;28;20034;-90
2023/05/08 03:53:03;;;;;;;16.48;6.53;;;;;;;16.45;100.00;152121.97;5015560;28;20026;-88
2023/05/08 03:55:30;;;;;;;9.23;6.20;;;;;;;16.64;100.00;152169.69;5019019;28;20034;-85
2023/05/08 03:58:18;;;;;;;18.17;6.63;;;;;;;16.47;100.00;152128.22;5023210;28;20034;-89
2023/05/08 04:01:04;;;;;;;21.00;6.35;;;;;;;16.51;100.00;152137.03;5016683;28;20436;-88
2023/05/08 04:03:50;;;;;;;10.40;5.90;;;;;;;16.25;100.00;152071.78;5015412;28;20069;-89
2023/05/08 04:06:27;;;;;;;13.23;6.45;;;;;;;16.34;100.00;152095.63;5015032;28;20036;-89
2023/05/08 04:09:11;;;;;;;11.02;6.57;;;;;;;16.21;100.00;152061.72;5015918;28;20140;-88
2023/05/08 04:11:46;;;;;;;13.70;6.30;;;;;;;16.17;100.00;152053.00;5016499;28;20044;-89
2023/05/08 04:14:17;;;;;;;11.55;6.82;;;;;;;16.18;100.00;152054.22;5017037;28;20061;-90
2023/05/08 04:16:50;;;;;;;12.25;6.72;;;;;;;16.31;100.00;152086.81;5017036;28;20030;-90
2023/05/08 04:19:26;;;;;;;15.00;7.10;;;;;;;16.52;100.00;152139.53;4998706;28;20065;-88
2023/05/08 04:21:56;;;;;;;22.35;7.40;;;;;;;16.52;100.00;152139.53;5017182;28;20056;-88
2023/05/08 04:24:27;;;;;;;14.20;6.68;;;;;;;16.49;100.00;152132.03;4999008;28;20566;-91
2023/05/08 04:26:53;;;;;;;11.90;6.18;;;;;;;16.54;100.00;152144.56;5015427;28;20465;-89
2023/05/08 04:29:20;;;;;;;9.65;6.45;;;;;;;16.56;100.00;152149.66;5014967;28;20036;-88
2023/05/08 04:31:47;;;;;;;8.73;6.05;;;;;;;16.55;100.00;152147.13;5016082;28;20038;-87
2023/05/08 04:34:13;;;;;;;12.15;6.13;;;;;;;16.68;100.00;152179.75;5014653;28;20125;-88
2023/05/08 04:36:39;;;;;;;15.05;6.53;;;;;;;16.70;100.00;152184.81;5015137;28;20038;-87
2023/05/08 04:39:06;;;;;;;12.88;6.80;;;;;;;16.86;100.00;152223.69;4999355;28;20025;-87
2023/05/08 04:41:31;;;;;;;13.68;7.00;;;;;;;16.93;100.00;152242.53;5015371;28;20125;-88
2023/05/08 04:43:58;;;;;;;14.52;7.60;;;;;;;16.77;100.00;152202.34;5017101;28;20124;-88
2023/05/08 04:46:24;;;;;;;10.63;8.15;;;;;;;16.91;100.00;152236.22;5018332;28;20483;-88
2023/05/08 04:49:30;;;;;;;16.08;11.60;;;;;;;16.88;100.00;152229.97;5017439;28;20026;-88
2023/05/08 04:51:56;;;;;;;14.43;10.70;;;;;;;16.78;100.00;152204.84;5036760;28;20120;-89
2023/05/08 04:54:22;;;;;;;18.65;11.63;;;;;;;16.71;100.00;152187.28;5017498;28;20506;-87
2023/05/08 04:56:48;;;;;;;14.07;10.60;;;;;;;16.79;100.00;152207.38;5018190;28;20042;-87
2023/05/08 04:59:14;;;;;;;16.77;10.40;;;;;;;16.66;100.00;152174.75;5012589;28;20046;-87
2023/05/08 05:01:39;;;;;;;18.52;10.82;;;;;;;16.72;100.00;152189.81;5027323;28;20112;-83
2023/05/08 05:04:05;;;;;;;14.23;10.10;;;;;;;16.85;100.00;152222.44;5030856;28;20040;-87
2023/05/08 05:06:32;;;;;;;17.95;9.77;;;;;;;16.83;100.00;152217.44;5028945;28;20034;-85
2023/05/08 05:08:57;;;;;;;16.85;10.90;;;;;;;16.87;100.00;152226.22;5029187;28;20072;-84
2023/05/08 05:11:23;;;;;;;15.73;10.27;;;;;;;16.67;100.00;152177.22;5018493;28;20101;-84
2023/05/08 05:13:49;;;;;;;18.13;10.82;;;;;;;16.72;100.00;152188.53;5025444;28;20038;-85
2023/05/08 05:16:15;;;;;;;18.33;11.50;;;;;;;16.67;100.00;152177.22;5027817;28;20042;-85
2023/05/08 05:18:41;;;;;;;18.02;12.05;;;;;;;16.62;100.00;152164.69;5025886;28;20049;-84
2023/05/08 05:21:07;;;;;;;15.57;11.95;;;;;;;16.63;100.00;152165.97;5029293;28;20364;-85
2023/05/08 05:23:33;;;;;;;15.95;10.95;;;;;;;16.49;100.00;152132.03;5029455;28;20010;-86
2023/05/08 05:25:59;;;;;;;19.67;10.60;;;;;;;16.42;100.00;152114.44;5012242;28;20049;-86
2023/05/08 05:28:25;;;;;;;19.55;10.00;;;;;;;16.26;100.00;152074.31;5031704;28;20034;-86
2023/05/08 05:30:51;;;;;;;17.83;9.65;;;;;;;16.20;100.00;152059.25;5006085;28;20038;-90
2023/05/08 05:33:16;;;;;;;23.30;8.57;;;;;;;16.20;100.00;152060.50;5019663;28;20043;-91
2023/05/08 05:35:45;;;;;;;16.55;9.32;;;;;;;16.25;100.00;152071.78;5020440;28;20037;-86
2023/05/08 05:38:11;;;;;;;19.02;10.80;;;;;;;16.22;100.00;152065.53;5020175;28;20034;-90
2023/05/08 05:40:40;;;;;;;16.42;9.95;;;;;;;16.38;100.00;152104.41;5020041;28;20030;-90
2023/05/08 05:43:08;;;;;;;19.13;9.98;;;;;;;16.56;100.00;152149.66;5017418;28;20442;-88
2023/05/08 05:45:35;;;;;;;16.17;9.18;;;;;;;16.88;100.00;152229.97;4997681;28;20038;-88
2023/05/08 05:48:01;;;;;;;18.65;8.00;;;;;;;16.94;100.00;152243.75;5017153;28;20189;-88
2023/05/08 05:50:28;;;;;;;13.98;8.93;;;;;;;16.79;100.00;152206.13;5015745;28;20038;-87
2023/05/08 05:52:55;;;;;;;17.13;7.82;;;;;;;17.54;100.00;152393.16;4998888;28;20033;-87
2023/05/08 05:55:21;;;;;;;14.68;8.10;;;;;;;18.27;100.00;152575.34;5014530;28;20038;-87
2023/05/08 05:57:47;;;;;;;18.92;7.53;;;;;;;19.46;100.00;152872.09;5014916;28;20487;-90
2023/05/08 06:00:13;;;;;;;9.30;6.78;;;;;;;19.73;100.00;152937.47;5014822;28;20033;-90
2023/05/08 06:02:46;;;;;;;13.80;7.90;;;;;;;20.79;100.00;153202.97;5015285;28;20462;-89
2023/05/08 06:05:14;;;;;;;11.77;7.53;;;;;;;20.28;100.00;153075.91;4999822;28;20498;-87
2023/05/08 06:07:39;;;;;;;12.40;7.63;;;;;;;20.57;100.00;153147.63;5015491;28;20034;-86
2023/05/08 06:10:06;;;;;;;14.88;8.27;;;;;;;20.98;100.00;153249.56;5015650;28;20034;-87
2023/05/08 06:12:31;;;;;;;13.90;8.05;;;;;;;21.00;100.00;153254.59;5008121;28;20054;-83
2023/05/08 06:14:58;;;;;;;18.50;7.80;;;;;;;20.21;100.00;153058.25;5022733;28;20483;-87
2023/05/08 06:17:24;;;;;;;11.52;7.80;;;;;;;21.11;100.00;153283.56;5014647;28;20407;-88
2023/05/08 06:19:55;;;;;;;14.20;8.95;;;;;;;19.68;100.00;152926.19;4998574;28;20054;-88
2023/05/08 06:22:22;;;;;;;10.80;8.25;;;;;;;19.73;100.00;152937.47;5027897;28;20049;-90
2023/05/08 06:24:54;;;;;;;12.88;8.15;;;;;;;19.44;100.00;152867.06;5030221;28;20061;-88
2023/05/08 06:27:21;;;;;;;14.27;8.20;;;;;;;19.64;100.00;152916.13;5030924;28;20089;-88
2023/05/08 06:29:47;;;;;;;14.85;7.95;;;;;;;19.85;100.00;152968.91;5028797;28;20042;-90
2023/05/08 06:32:12;;;;;;;17.13;8.43;;;;;;;19.57;100.00;152898.50;5031171;28;20057;-89
2023/05/08 06:34:38;;;;;;;14.63;8.23;;;;;;;20.08;100.00;153026.75;5017198;28;20030;-90
2023/05/08 06:37:04;;;;;;;16.33;7.53;;;;;;;21.03;100.00;153263.41;5006410;28;20038;-85
2023/05/08 06:39:29;;;;;;;11.48;8.23;;;;;;;21.60;100.00;153404.44;4996152;28;20105;-84
2023/05/08 06:41:55;;;;;;;10.90;7.80;;;;;;;22.29;98.50;153575.75;4998803;28;20142;-86
2023/05/08 06:44:28;;;;;;;13.20;7.65;;;;;;;21.93;98.72;153487.59;4999315;28;20034;-82
2023/05/08 06:46:54;;;;;;;14.32;7.63;;;;;;;22.27;92.83;153572.00;4999245;28;20037;-86
2023/05/08 06:49:19;;;;;;;14.30;7.47;;;;;;;21.23;100.00;153311.28;5001106;28;20038;-86
2023/05/08 06:51:45;;;;;;;15.25;7.60;;;;;;;21.74;97.49;153438.44;5002529;28;20058;-85
2023/05/08 06:54:10;;;;;;;10.85;6.80;;;;;;;23.26;86.15;153817.75;5003627;28;20381;-87
2023/05/08 06:56:36;;;;;;;10.52;7.25;;;;;;;23.34;81.97;153839.16;4996467;28;20045;-85
2023/05/08 06:59:01;;;;;;;14.27;7.60;;;;;;;23.31;82.70;153830.31;4996099;28;20030;-84
2023/05/08 07:01:27;;;;;;;14.50;7.82;;;;;;;22.33;89.05;153587.13;5000429;28;20035;-84
2023/05/08 07:03:52;;;;;;;12.27;7.60;;;;;;;22.56;88.61;153643.78;4997668;28;20050;-83
2023/05/08 07:06:18;;;;;;;12.10;7.30;;;;;;;22.39;86.70;153602.22;4995618;28;20041;-85
2023/05/08 07:08:43;;;;;;;9.80;6.78;;;;;;;22.60;86.66;153653.88;4996621;28;20148;-85
2023/05/08 07:11:09;;;;;;;11.85;6.70;;;;;;;22.57;86.48;153646.31;4995811;28;20034;-86
2023/05/08 07:13:35;;;;;;;11.60;6.35;;;;;;;22.06;88.10;153520.34;4997805;28;20616;-86
2023/05/08 07:16:01;;;;;;;10.88;6.20;;;;;;;21.86;89.88;153468.66;4998190;28;20026;-85
2023/05/08 07:18:26;;;;;;;8.38;6.13;;;;;;;22.10;86.72;153530.44;4997120;28;20026;-86
2023/05/08 07:20:52;;;;;;;11.63;6.13;;;;;;;22.58;83.34;153648.81;5003250;28;20464;-85
2023/05/08 07:23:17;;;;;;;11.75;6.22;;;;;;;22.29;84.75;153577.03;5012263;28;20030;-86
2023/05/08 07:25:43;;;;;;;13.15;6.28;;;;;;;21.83;88.10;153462.38;5013891;28;20038;-87
2023/05/08 07:28:08;;;;;;;9.95;6.00;;;;;;;21.55;88.33;153393.09;5014123;28;20049;-85
2023/05/08 07:30:35;;;;;;;9.25;5.28;;;;;;;21.06;93.38;153270.94;5005680;28;20030;-86
2023/05/08 07:33:00;;;;;;;8.93;6.22;;;;;;;21.10;94.14;153281.06;5014857;28;20116;-89
2023/05/08 07:35:26;;;;;;;19.02;6.57;;;;;;;21.81;92.63;153457.31;5016911;28;20088;-85
2023/05/08 07:37:51;;;;;;;10.23;6.15;;;;;;;22.51;84.92;153632.44;5028472;28;20038;-87
2023/05/08 07:40:21;;;;;;;10.10;6.22;;;;;;;22.40;86.53;153603.47;5031441;28;20046;-88
2023/05/08 07:42:47;;;;;;;9.52;5.03;;;;;;;22.15;87.61;153541.75;5010093;28;20038;-84
2023/05/08 07:45:18;;;;;;;9.20;6.13;;;;;;;22.40;84.73;153603.47;5024778;28;20030;-85
2023/05/08 07:47:52;;;;;;;9.18;6.00;;;;;;;22.15;85.79;153543.00;5014403;28;20060;-83
2023/05/08 07:50:17;;;;;;;11.68;6.40;;;;;;;22.13;87.51;153536.72;5006704;28;20095;-85
2023/05/08 07:52:44;;;;;;;18.95;5.78;;;;;;;21.83;89.53;153462.38;5005463;28;20042;-84
2023/05/08 07:55:09;;;;;;;10.98;6.40;;;;;;;21.49;92.93;153376.72;5010338;28;20117;-85
2023/05/08 07:57:39;;;;;;;10.10;5.55;;;;;;;20.86;95.48;153220.59;5037278;28;20034;-85
2023/05/08 08:00:06;;;;;;;10.95;5.43;;;;;;;20.81;92.98;153208.03;5024756;28;20215;-85
2023/05/08 08:02:39;;;;;;;9.73;5.35;;;;;;;21.08;92.43;153274.69;5024884;28;20124;-85
2023/05/08 08:05:05;;;;;;;11.75;6.45;;;;;;;20.86;95.19;153219.34;5018979;28;20065;-85
2023/05/08 08:07:34;;;;;;;8.55;5.95;;;;;;;20.51;99.70;153132.53;5005641;28;20442;-85
2023/05/08 08:10:00;;;;;;;12.25;6.47;;;;;;;20.34;100.00;153089.75;5026010;28;20073;-90
2023/05/08 08:12:27;;;;;;;13.52;6.72;;;;;;;20.52;100.00;153135.00;5034531;28;20034;-88
2023/05/08 08:14:59;;;;;;;8.25;6.57;;;;;;;20.45;100.00;153118.66;5036603;28;20106;-87
2023/05/08 08:17:24;;;;;;;12.20;6.93;;;;;;;20.36;100.00;153096.03;5003479;28;20042;-90
2023/05/08 08:19:52;;;;;;;8.93;5.75;;;;;;;20.27;100.00;153072.13;5036981;28;20033;-91
2023/05/08 08:22:20;;;;;;;12.95;5.15;;;;;;;20.46;100.00;153119.91;5037413;28;20037;-89
2023/05/08 08:24:57;;;;;;;7.60;4.80;;;;;;;20.07;100.00;153024.28;5030154;28;20054;-89
2023/05/08 08:27:23;;;;;;;5.32;3.10;;;;;;;20.07;100.00;153024.28;5031943;28;20035;-85
2023/05/08 08:29:50;;;;;;;3.50;2.88;;;;;;;19.99;100.00;153004.13;5013009;28;20172;-88
2023/05/08 08:32:17;;;;;;;8.05;3.17;;;;;;;20.10;100.00;153030.56;5026215;28;20033;-87
2023/05/08 08:34:43;;;;;;;5.25;3.30;;;;;;;20.02;100.00;153011.69;5009647;28;20038;-85
2023/05/08 08:37:09;;;;;;;10.15;3.22;;;;;;;19.98;100.00;153001.66;5023619;28;20048;-85
2023/05/08 08:39:35;;;;;;;3.30;2.53;;;;;;;19.97;100.00;152999.13;5009464;28;20045;-87
2023/05/08 08:42:01;;;;;;;9.35;3.50;;;;;;;19.88;100.00;152976.50;5028849;28;20042;-87
2023/05/08 08:44:27;;;;;;;10.15;4.05;;;;;;;19.81;100.00;152958.88;5033922;28;20046;-89
2023/05/08 08:46:53;;;;;;;7.70;3.42;;;;;;;19.85;100.00;152968.91;5016347;28;20114;-88
2023/05/08 08:49:27;;;;;;;6.45;3.60;;;;;;;20.01;100.00;153009.19;5033378;28;20026;-88
2023/05/08 08:51:57;;;;;;;4.68;3.70;;;;;;;19.86;100.00;152971.44;5017266;28;20046;-89
2023/05/08 08:54:26;;;;;;;6.38;3.92;;;;;;;19.64;100.00;152916.13;5034030;28;20034;-88
2023/05/08 08:56:54;;;;;;;4.82;3.60;;;;;;;20.04;100.00;153016.75;5016455;28;20045;-89
2023/05/08 08:59:24;;;;;;;8.43;4.55;;;;;;;20.04;100.00;153016.75;5033327;28;20062;-88
2023/05/08 09:01:55;;;;;;;9.07;3.90;;;;;;;20.54;100.00;153141.34;5032268;28;20041;-87
2023/05/08 09:04:26;;;;;;;7.65;3.83;;;;;;;20.32;100.00;153085.94;5032773;28;20025;-88
2023/05/08 09:06:53;;;;;;;6.25;3.50;;;;;;;21.12;97.02;153284.81;5026742;28;20037;-87
2023/05/08 09:09:19;;;;;;;16.27;4.78;;;;;;;21.17;94.92;153296.16;5025568;28;20030;-88
2023/05/08 09:11:45;;;;;;;8.60;3.97;;;;;;;21.10;95.30;153279.81;5025839;28;20049;-88
2023/05/08 09:14:11;;;;;;;5.13;3.03;;;;;;;21.09;95.43;153278.53;5029365;28;20022;-87
2023/05/08 09:16:36;;;;;;;4.07;3.35;;;;;;;21.24;92.12;153313.81;5029357;28;20045;-86
2023/05/08 09:19:03;;;;;;;7.13;3.50;;;;;;;21.10;93.87;153281.06;5029160;28;20562;-88
2023/05/08 09:21:28;;;;;;;7.07;3.55;;;;;;;21.08;94.74;153275.97;5029979;28;20045;-87
2023/05/08 09:23:59;;;;;;;5.15;3.67;;;;;;;21.09;93.31;153277.22;5031762;28;20033;-86
2023/05/08 09:26:38;;;;;;;5.57;3.35;;;;;;;21.00;92.83;153255.84;5026540;28;20072;-85
2023/05/08 09:29:06;;;;;;;6.40;3.90;;;;;;;20.84;93.21;153214.31;5022703;28;20034;-87
2023/05/08 09:31:44;;;;;;;8.63;3.42;;;;;;;20.60;96.75;153155.16;5026611;28;20057;-86
2023/05/08 09:34:22;;;;;;;14.27;3.35;;;;;;;20.65;97.85;153166.50;5025876;28;20073;-87
2023/05/08 09:36:48;;;;;;;6.75;4.30;;;;;;;20.39;99.96;153102.31;5025487;28;20038;-86
2023/05/08 09:39:22;;;;;;;9.68;4.30;;;;;;;20.47;100.00;153122.44;5027163;28;20034;-87
2023/05/08 09:42:00;;;;;;;7.93;4.68;;;;;;;20.46;100.00;153119.91;5028684;28;20037;-89
2023/05/08 09:44:25;;;;;;;5.75;4.28;;;;;;;20.40;100.00;153104.84;5006898;28;20045;-86
2023/05/08 09:46:52;;;;;;;10.68;5.25;;;;;;;20.38;100.00;153099.81;4992650;28;20034;-86
2023/05/08 09:49:18;;;;;;;20.02;5.10;;;;;;;20.44;100.00;153116.16;5003324;28;20035;-85
2023/05/08 09:51:54;;;;;;;6.95;5.20;;;;;;;20.34;100.00;153089.75;5008056;28;20057;-86
2023/05/08 09:54:19;;;;;;;9.57;5.32;;;;;;;20.42;100.00;153109.84;5021866;28;20049;-87
2023/05/08 09:56:45;;;;;;;8.35;5.68;;;;;;;20.40;100.00;153104.84;5021972;28;20034;-86
2023/05/08 09:59:26;;;;;;;9.90;5.90;;;;;;;20.30;100.00;153079.66;5017562;28;20037;-86
2023/05/08 10:01:53;;;;;;;8.27;6.20;;;;;;;20.25;100.00;153068.28;5026021;28;20025;-87
2023/05/08 10:04:36;;;;;;;12.75;6.60;;;;;;;20.30;100.00;153080.94;5024467;28;20026;-86
2023/05/08 10:07:02;;;;;;;9.13;6.30;;;;;;;20.54;100.00;153141.34;5024720;28;20038;-85
2023/05/08 10:09:28;;;;;;;9.75;6.65;;;;;;;20.72;99.59;153185.34;4993055;28;20081;-87
2023/05/08 10:11:54;;;;;;;9.27;6.60;;;;;;;21.04;95.02;153264.66;5025232;28;20058;-86
2023/05/08 10:14:21;;;;;;;8.20;5.88;;;;;;;21.14;92.68;153291.09;5022688;28;20040;-87
2023/05/08 10:16:49;;;;;;;9.65;6.63;;;;;;;21.40;90.98;153355.34;5024127;28;20037;-86
2023/05/08 10:19:17;;;;;;;13.32;6.35;;;;;;;21.92;88.76;153485.06;5025491;28;20098;-86
2023/05/08 10:21:47;;;;;;;7.95;5.75;;;;;;;21.91;87.68;153482.53;5026944;28;20149;-88
2023/05/08 10:24:15;;;;;;;10.82;4.90;;;;;;;22.58;79.44;153650.06;5028727;28;20101;-87
2023/05/08 10:26:43;;;;;;;6.45;3.72;;;;;;;22.86;76.84;153718.19;5029945;28;20557;-84
2023/05/08 10:29:20;;;;;;;7.40;4.43;;;;;;;22.49;77.91;153626.16;5026171;28;20122;-86
2023/05/08 10:31:48;;;;;;;7.22;3.53;;;;;;;22.64;77.20;153663.94;5026530;28;20414;-87
2023/05/08 10:34:18;;;;;;;4.85;3.60;;;;;;;22.84;76.72;153714.38;5029073;28;20606;-86
2023/05/08 10:36:46;;;;;;;5.20;3.10;;;;;;;23.46;72.99;153868.22;5011214;28;20127;-86
2023/05/08 10:39:15;;;;;;;5.00;3.30;;;;;;;23.20;74.52;153802.63;5029616;28;20029;-86
2023/05/08 10:41:43;;;;;;;4.38;2.83;;;;;;;22.98;72.70;153748.41;5029885;28;20150;-88
2023/05/08 10:44:10;;;;;;;6.13;3.15;;;;;;;22.92;73.58;153733.28;5023523;28;20413;-85
2023/05/08 10:47:00;;;;;;;7.60;3.80;;;;;;;22.41;78.81;153607.25;5008667;28;20038;-88
2023/05/08 10:49:56;;;;;;;7.40;3.80;;;;;;;22.26;79.49;153568.19;5009794;28;20042;-90
2023/05/08 10:52:46;;;;;;;6.18;3.40;;;;;;;22.48;78.74;153624.88;5017729;28;20100;-89
2023/05/08 10:55:45;;;;;;;5.15;3.97;;;;;;;22.48;79.95;153623.63;5041371;28;20039;-87
2023/05/08 10:58:28;;;;;;;8.13;3.40;;;;;;;22.60;75.67;153653.88;4978677;28;20052;-86
2023/05/08 11:01:04;;;;;;;10.27;3.35;;;;;;;22.87;75.72;153721.94;4989828;28;20057;-89
2023/05/08 11:03:51;;;;;;;5.85;2.63;;;;;;;22.32;76.92;153583.31;4994916;28;20039;-87
2023/05/08 11:06:57;;;;;;;8.63;3.00;;;;;;;22.21;79.44;153555.59;4996617;28;20070;-85
2023/05/08 11:09:44;;;;;;;4.20;2.85;;;;;;;22.48;78.58;153623.63;5031365;28;20129;-90
2023/05/08 11:12:28;;;;;;;4.65;2.75;;;;;;;22.65;75.43;153666.47;5007530;28;20088;-92
2023/05/08 11:15:22;;;;;;;5.57;2.60;;;;;;;22.57;73.84;153646.31;5009508;28;20049;-93
2023/05/08 11:18:18;;;;;;;6.28;3.17;;;;;;;22.46;76.19;153619.88;5021948;28;20034;-92
2023/05/08 11:21:09;;;;;;;7.25;3.00;;;;;;;22.61;75.64;153656.38;5025158;28;20054;-90
2023/05/08 11:23:39;;;;;;;4.68;2.55;;;;;;;22.53;74.92;153636.25;5286111;23;20012;-91
2023/05/08 11:26:16;;;;;;;5.82;2.45;;;;;;;22.79;75.02;153701.78;5028168;28;20049;-92
2023/05/08 11:29:33;;;;;;;3.88;2.53;;;;;;;22.82;73.79;153709.34;5024834;28;20041;-94